sensor_id;sensor_type;location;lat;lon;timestamp;P1;durP1;ratioP1;P2;durP2;ratioP2
13461;SDS011;6803;45.264;5.468;2023-02-18T00:02:22;7.37;;;5.17;;
13461;SDS011;6803;45.264;5.468;2023-02-18T00:04:54;7.80;;;5.67;;
13461;SDS011;6803;45.264;5.468;2023-02-18T00:07:25;7.30;;;5.27;;
13461;SDS011;6803;45.264;5.468;2023-02-18T00:09:56;10.30;;;5.07;;
13461;SDS011;6803;45.264;5.468;2023-02-18T00:12:27;7.23;;;5.10;;
13461;SDS011;6803;45.264;5.468;2023-02-18T00:14:59;8.33;;;5.10;;
13461;SDS011;6803;45.264;5.468;2023-02-18T00:17:31;7.03;;;5.20;;
13461;SDS011;6803;45.264;5.468;2023-02-18T00:20:02;6.37;;;4.53;;
13461;SDS011;6803;45.264;5.468;2023-02-18T00:22:35;7.47;;;5.03;;
13461;SDS011;6803;45.264;5.468;2023-02-18T00:25:06;5.17;;;4.03;;
13461;SDS011;6803;45.264;5.468;2023-02-18T00:27:37;6.43;;;3.93;;
13461;SDS011;6803;45.264;5.468;2023-02-18T00:30:09;5.03;;;3.73;;
13461;SDS011;6803;45.264;5.468;2023-02-18T00:32:41;6.03;;;4.40;;
13461;SDS011;6803;45.264;5.468;2023-02-18T00:35:13;5.20;;;3.80;;
13461;SDS011;6803;45.264;5.468;2023-02-18T00:37:44;6.10;;;3.83;;
13461;SDS011;6803;45.264;5.468;2023-02-18T00:40:16;5.13;;;3.37;;
13461;SDS011;6803;45.264;5.468;2023-02-18T00:42:47;8.23;;;3.20;;
13461;SDS011;6803;45.264;5.468;2023-02-18T00:45:18;6.90;;;4.40;;
13461;SDS011;6803;45.264;5.468;2023-02-18T00:47:49;4.57;;;3.30;;
13461;SDS011;6803;45.264;5.468;2023-02-18T00:50:20;5.43;;;3.60;;
13461;SDS011;6803;45.264;5.468;2023-02-18T00:52:52;3.47;;;2.97;;
13461;SDS011;6803;45.264;5.468;2023-02-18T00:55:23;3.70;;;2.90;;
13461;SDS011;6803;45.264;5.468;2023-02-18T00:57:54;3.20;;;2.90;;
13461;SDS011;6803;45.264;5.468;2023-02-18T01:00:25;3.87;;;2.83;;
13461;SDS011;6803;45.264;5.468;2023-02-18T01:02:56;3.23;;;2.57;;
13461;SDS011;6803;45.264;5.468;2023-02-18T01:05:28;3.73;;;3.10;;
13461;SDS011;6803;45.264;5.468;2023-02-18T01:07:59;3.80;;;2.97;;
13461;SDS011;6803;45.264;5.468;2023-02-18T01:10:30;5.80;;;2.50;;
13461;SDS011;6803;45.264;5.468;2023-02-18T01:13:01;3.40;;;2.87;;
13461;SDS011;6803;45.264;5.468;2023-02-18T01:15:32;4.10;;;2.77;;
13461;SDS011;6803;45.264;5.468;2023-02-18T01:18:04;4.83;;;2.50;;
13461;SDS011;6803;45.264;5.468;2023-02-18T01:20:36;7.10;;;3.67;;
13461;SDS011;6803;45.264;5.468;2023-02-18T01:23:08;10.87;;;6.67;;
13461;SDS011;6803;45.264;5.468;2023-02-18T01:25:40;9.37;;;5.77;;
13461;SDS011;6803;45.264;5.468;2023-02-18T01:28:12;11.03;;;6.43;;
13461;SDS011;6803;45.264;5.468;2023-02-18T01:30:43;6.83;;;5.47;;
13461;SDS011;6803;45.264;5.468;2023-02-18T01:33:14;8.00;;;5.73;;
13461;SDS011;6803;45.264;5.468;2023-02-18T01:35:45;7.37;;;5.80;;
13461;SDS011;6803;45.264;5.468;2023-02-18T01:38:16;10.30;;;5.27;;
13461;SDS011;6803;45.264;5.468;2023-02-18T01:40:48;11.93;;;5.30;;
13461;SDS011;6803;45.264;5.468;2023-02-18T01:43:20;7.83;;;4.57;;
13461;SDS011;6803;45.264;5.468;2023-02-18T01:48:45;10.60;;;5.80;;
13461;SDS011;6803;45.264;5.468;2023-02-18T01:51:18;8.63;;;5.30;;
13461;SDS011;6803;45.264;5.468;2023-02-18T01:53:53;8.03;;;5.57;;
13461;SDS011;6803;45.264;5.468;2023-02-18T01:56:27;8.50;;;5.50;;
13461;SDS011;6803;45.264;5.468;2023-02-18T01:59:01;7.80;;;4.87;;
13461;SDS011;6803;45.264;5.468;2023-02-18T02:01:34;8.60;;;4.50;;
13461;SDS011;6803;45.264;5.468;2023-02-18T02:04:07;7.63;;;4.67;;
13461;SDS011;6803;45.264;5.468;2023-02-18T02:06:38;6.60;;;4.53;;
13461;SDS011;6803;45.264;5.468;2023-02-18T02:09:09;5.67;;;4.17;;
13461;SDS011;6803;45.264;5.468;2023-02-18T02:11:50;5.93;;;3.60;;
13461;SDS011;6803;45.264;5.468;2023-02-18T02:14:49;6.30;;;4.13;;
13461;SDS011;6803;45.264;5.468;2023-02-18T02:17:26;7.50;;;4.60;;
13461;SDS011;6803;45.264;5.468;2023-02-18T02:36:22;11.47;;;5.60;;
13461;SDS011;6803;45.264;5.468;2023-02-18T02:38:58;8.73;;;5.07;;
13461;SDS011;6803;45.264;5.468;2023-02-18T02:41:40;8.20;;;4.93;;
13461;SDS011;6803;45.264;5.468;2023-02-18T02:44:17;6.83;;;4.57;;
13461;SDS011;6803;45.264;5.468;2023-02-18T02:46:51;8.40;;;5.10;;
13461;SDS011;6803;45.264;5.468;2023-02-18T02:49:35;8.00;;;4.90;;
13461;SDS011;6803;45.264;5.468;2023-02-18T02:52:04;10.00;;;4.80;;
13461;SDS011;6803;45.264;5.468;2023-02-18T02:54:38;5.97;;;4.20;;
13461;SDS011;6803;45.264;5.468;2023-02-18T03:00:14;7.17;;;4.67;;
13461;SDS011;6803;45.264;5.468;2023-02-18T03:05:45;7.37;;;4.40;;
13461;SDS011;6803;45.264;5.468;2023-02-18T03:08:23;5.03;;;3.93;;
13461;SDS011;6803;45.264;5.468;2023-02-18T03:11:02;6.27;;;4.50;;
13461;SDS011;6803;45.264;5.468;2023-02-18T03:13:39;6.80;;;4.80;;
13461;SDS011;6803;45.264;5.468;2023-02-18T03:16:18;10.77;;;4.97;;
13461;SDS011;6803;45.264;5.468;2023-02-18T03:18:54;9.70;;;5.40;;
13461;SDS011;6803;45.264;5.468;2023-02-18T03:21:28;11.63;;;5.70;;
13461;SDS011;6803;45.264;5.468;2023-02-18T03:24:02;6.63;;;5.10;;
13461;SDS011;6803;45.264;5.468;2023-02-18T03:26:37;7.30;;;4.87;;
13461;SDS011;6803;45.264;5.468;2023-02-18T03:29:10;7.83;;;5.63;;
13461;SDS011;6803;45.264;5.468;2023-02-18T03:31:44;11.13;;;6.33;;
13461;SDS011;6803;45.264;5.468;2023-02-18T03:34:19;9.93;;;6.83;;
13461;SDS011;6803;45.264;5.468;2023-02-18T03:36:53;13.30;;;7.73;;
13461;SDS011;6803;45.264;5.468;2023-02-18T03:39:26;10.60;;;6.73;;
13461;SDS011;6803;45.264;5.468;2023-02-18T03:42:00;12.07;;;7.33;;
13461;SDS011;6803;45.264;5.468;2023-02-18T03:44:30;11.93;;;7.33;;
13461;SDS011;6803;45.264;5.468;2023-02-18T03:47:02;11.17;;;6.77;;
13461;SDS011;6803;45.264;5.468;2023-02-18T03:49:34;9.90;;;6.70;;
13461;SDS011;6803;45.264;5.468;2023-02-18T03:52:04;9.57;;;6.83;;
13461;SDS011;6803;45.264;5.468;2023-02-18T03:54:35;11.20;;;7.00;;
13461;SDS011;6803;45.264;5.468;2023-02-18T03:57:07;10.17;;;6.70;;
13461;SDS011;6803;45.264;5.468;2023-02-18T03:59:38;11.43;;;7.47;;
13461;SDS011;6803;45.264;5.468;2023-02-18T04:02:09;8.27;;;6.60;;
13461;SDS011;6803;45.264;5.468;2023-02-18T04:04:40;10.30;;;6.03;;
13461;SDS011;6803;45.264;5.468;2023-02-18T04:07:11;9.73;;;6.43;;
13461;SDS011;6803;45.264;5.468;2023-02-18T04:09:42;9.73;;;6.30;;
13461;SDS011;6803;45.264;5.468;2023-02-18T04:12:13;14.47;;;6.27;;
13461;SDS011;6803;45.264;5.468;2023-02-18T04:14:44;12.53;;;6.90;;
13461;SDS011;6803;45.264;5.468;2023-02-18T04:17:15;9.93;;;6.90;;
13461;SDS011;6803;45.264;5.468;2023-02-18T04:19:46;11.97;;;6.97;;
13461;SDS011;6803;45.264;5.468;2023-02-18T04:22:17;11.83;;;6.67;;
13461;SDS011;6803;45.264;5.468;2023-02-18T04:24:48;9.37;;;6.80;;
13461;SDS011;6803;45.264;5.468;2023-02-18T04:27:19;9.53;;;6.37;;
13461;SDS011;6803;45.264;5.468;2023-02-18T04:29:50;9.93;;;6.20;;
13461;SDS011;6803;45.264;5.468;2023-02-18T04:32:21;12.60;;;7.43;;
13461;SDS011;6803;45.264;5.468;2023-02-18T04:34:52;9.40;;;7.00;;
13461;SDS011;6803;45.264;5.468;2023-02-18T04:37:23;10.43;;;7.23;;
13461;SDS011;6803;45.264;5.468;2023-02-18T04:39:54;12.60;;;7.17;;
13461;SDS011;6803;45.264;5.468;2023-02-18T04:42:25;11.00;;;6.97;;
13461;SDS011;6803;45.264;5.468;2023-02-18T04:44:56;12.03;;;7.50;;
13461;SDS011;6803;45.264;5.468;2023-02-18T04:47:27;10.93;;;7.60;;
13461;SDS011;6803;45.264;5.468;2023-02-18T04:49:58;10.13;;;6.70;;
13461;SDS011;6803;45.264;5.468;2023-02-18T04:52:29;9.57;;;6.77;;
13461;SDS011;6803;45.264;5.468;2023-02-18T04:55:00;8.47;;;6.47;;
13461;SDS011;6803;45.264;5.468;2023-02-18T04:57:32;8.90;;;6.70;;
13461;SDS011;6803;45.264;5.468;2023-02-18T05:00:04;16.40;;;7.73;;
13461;SDS011;6803;45.264;5.468;2023-02-18T05:02:38;11.80;;;7.23;;
13461;SDS011;6803;45.264;5.468;2023-02-18T05:05:09;9.17;;;6.90;;
13461;SDS011;6803;45.264;5.468;2023-02-18T05:07:41;14.53;;;6.80;;
13461;SDS011;6803;45.264;5.468;2023-02-18T05:10:14;11.00;;;7.03;;
13461;SDS011;6803;45.264;5.468;2023-02-18T05:12:45;11.40;;;7.30;;
13461;SDS011;6803;45.264;5.468;2023-02-18T05:15:16;11.77;;;7.10;;
13461;SDS011;6803;45.264;5.468;2023-02-18T05:17:47;12.70;;;6.03;;
13461;SDS011;6803;45.264;5.468;2023-02-18T05:20:18;10.47;;;6.63;;
13461;SDS011;6803;45.264;5.468;2023-02-18T05:22:50;12.83;;;6.93;;
13461;SDS011;6803;45.264;5.468;2023-02-18T05:25:21;10.80;;;6.90;;
13461;SDS011;6803;45.264;5.468;2023-02-18T05:27:52;11.87;;;6.73;;
13461;SDS011;6803;45.264;5.468;2023-02-18T05:30:23;11.80;;;6.80;;
13461;SDS011;6803;45.264;5.468;2023-02-18T05:32:54;13.53;;;7.17;;
13461;SDS011;6803;45.264;5.468;2023-02-18T05:35:25;9.60;;;6.70;;
13461;SDS011;6803;45.264;5.468;2023-02-18T05:37:56;12.17;;;6.67;;
13461;SDS011;6803;45.264;5.468;2023-02-18T05:40:27;10.83;;;6.30;;
13461;SDS011;6803;45.264;5.468;2023-02-18T05:42:58;9.20;;;6.53;;
13461;SDS011;6803;45.264;5.468;2023-02-18T05:45:29;10.50;;;7.07;;
13461;SDS011;6803;45.264;5.468;2023-02-18T05:48:01;9.73;;;6.17;;
13461;SDS011;6803;45.264;5.468;2023-02-18T05:50:32;8.53;;;5.87;;
13461;SDS011;6803;45.264;5.468;2023-02-18T05:53:04;9.30;;;6.90;;
13461;SDS011;6803;45.264;5.468;2023-02-18T05:55:34;12.50;;;7.40;;
13461;SDS011;6803;45.264;5.468;2023-02-18T05:58:06;12.03;;;7.20;;
13461;SDS011;6803;45.264;5.468;2023-02-18T06:00:37;8.63;;;6.30;;
13461;SDS011;6803;45.264;5.468;2023-02-18T06:03:08;12.03;;;6.57;;
13461;SDS011;6803;45.264;5.468;2023-02-18T06:05:39;8.30;;;6.27;;
13461;SDS011;6803;45.264;5.468;2023-02-18T06:08:10;13.63;;;6.33;;
13461;SDS011;6803;45.264;5.468;2023-02-18T06:10:41;13.30;;;6.50;;
13461;SDS011;6803;45.264;5.468;2023-02-18T06:13:12;9.70;;;6.87;;
13461;SDS011;6803;45.264;5.468;2023-02-18T06:15:43;9.93;;;7.13;;
13461;SDS011;6803;45.264;5.468;2023-02-18T06:18:14;12.07;;;7.37;;
13461;SDS011;6803;45.264;5.468;2023-02-18T06:20:46;11.37;;;7.33;;
13461;SDS011;6803;45.264;5.468;2023-02-18T06:23:17;13.30;;;6.83;;
13461;SDS011;6803;45.264;5.468;2023-02-18T06:25:56;10.60;;;6.60;;
13461;SDS011;6803;45.264;5.468;2023-02-18T06:28:27;11.70;;;6.90;;
13461;SDS011;6803;45.264;5.468;2023-02-18T06:30:58;11.87;;;6.23;;
13461;SDS011;6803;45.264;5.468;2023-02-18T06:33:30;8.57;;;6.70;;
13461;SDS011;6803;45.264;5.468;2023-02-18T06:36:03;10.43;;;6.10;;
13461;SDS011;6803;45.264;5.468;2023-02-18T06:38:39;10.17;;;6.93;;
13461;SDS011;6803;45.264;5.468;2023-02-18T06:41:12;8.47;;;6.53;;
13461;SDS011;6803;45.264;5.468;2023-02-18T06:43:43;13.63;;;6.80;;
13461;SDS011;6803;45.264;5.468;2023-02-18T06:46:14;14.30;;;7.23;;
13461;SDS011;6803;45.264;5.468;2023-02-18T06:48:45;9.57;;;6.93;;
13461;SDS011;6803;45.264;5.468;2023-02-18T06:51:16;10.27;;;7.07;;
13461;SDS011;6803;45.264;5.468;2023-02-18T06:53:47;11.73;;;7.07;;
13461;SDS011;6803;45.264;5.468;2023-02-18T06:56:19;11.17;;;6.80;;
13461;SDS011;6803;45.264;5.468;2023-02-18T06:58:50;12.03;;;7.50;;
13461;SDS011;6803;45.264;5.468;2023-02-18T07:01:21;11.37;;;7.10;;
13461;SDS011;6803;45.264;5.468;2023-02-18T07:03:52;11.90;;;7.10;;
13461;SDS011;6803;45.264;5.468;2023-02-18T07:06:23;13.17;;;6.90;;
13461;SDS011;6803;45.264;5.468;2023-02-18T07:08:54;9.30;;;6.70;;
13461;SDS011;6803;45.264;5.468;2023-02-18T07:11:25;14.10;;;7.70;;
13461;SDS011;6803;45.264;5.468;2023-02-18T07:13:56;10.50;;;7.27;;
13461;SDS011;6803;45.264;5.468;2023-02-18T07:16:28;13.03;;;7.30;;
13461;SDS011;6803;45.264;5.468;2023-02-18T07:18:59;9.53;;;6.37;;
13461;SDS011;6803;45.264;5.468;2023-02-18T07:21:30;11.50;;;6.47;;
13461;SDS011;6803;45.264;5.468;2023-02-18T07:24:02;11.73;;;6.47;;
13461;SDS011;6803;45.264;5.468;2023-02-18T07:29:04;10.60;;;6.53;;
13461;SDS011;6803;45.264;5.468;2023-02-18T07:31:35;15.80;;;7.20;;
13461;SDS011;6803;45.264;5.468;2023-02-18T07:34:06;10.32;;;7.37;;
13461;SDS011;6803;45.264;5.468;2023-02-18T07:36:37;10.80;;;7.10;;
13461;SDS011;6803;45.264;5.468;2023-02-18T07:39:09;9.83;;;6.47;;
13461;SDS011;6803;45.264;5.468;2023-02-18T07:41:40;10.97;;;6.43;;
13461;SDS011;6803;45.264;5.468;2023-02-18T07:44:11;11.80;;;7.20;;
13461;SDS011;6803;45.264;5.468;2023-02-18T07:46:42;15.90;;;6.70;;
13461;SDS011;6803;45.264;5.468;2023-02-18T07:49:15;10.37;;;6.90;;
13461;SDS011;6803;45.264;5.468;2023-02-18T07:51:47;9.87;;;7.00;;
13461;SDS011;6803;45.264;5.468;2023-02-18T07:54:21;10.37;;;7.23;;
13461;SDS011;6803;45.264;5.468;2023-02-18T07:56:54;13.47;;;7.97;;
13461;SDS011;6803;45.264;5.468;2023-02-18T07:59:25;13.03;;;6.67;;
13461;SDS011;6803;45.264;5.468;2023-02-18T08:01:56;13.07;;;7.50;;
13461;SDS011;6803;45.264;5.468;2023-02-18T08:04:29;13.40;;;6.93;;
13461;SDS011;6803;45.264;5.468;2023-02-18T08:07:00;9.30;;;6.67;;
13461;SDS011;6803;45.264;5.468;2023-02-18T08:09:32;10.80;;;7.20;;
13461;SDS011;6803;45.264;5.468;2023-02-18T08:12:04;9.80;;;6.37;;
13461;SDS011;6803;45.264;5.468;2023-02-18T08:14:36;14.60;;;6.87;;
13461;SDS011;6803;45.264;5.468;2023-02-18T08:17:08;9.57;;;6.37;;
13461;SDS011;6803;45.264;5.468;2023-02-18T08:19:39;11.43;;;6.50;;
13461;SDS011;6803;45.264;5.468;2023-02-18T08:22:11;11.80;;;6.62;;
13461;SDS011;6803;45.264;5.468;2023-02-18T08:24:42;13.67;;;7.20;;
13461;SDS011;6803;45.264;5.468;2023-02-18T08:27:13;11.20;;;6.63;;
13461;SDS011;6803;45.264;5.468;2023-02-18T08:29:45;8.10;;;6.07;;
13461;SDS011;6803;45.264;5.468;2023-02-18T08:35:08;12.13;;;6.47;;
13461;SDS011;6803;45.264;5.468;2023-02-18T08:37:40;10.10;;;5.87;;
13461;SDS011;6803;45.264;5.468;2023-02-18T08:40:14;8.47;;;6.40;;
13461;SDS011;6803;45.264;5.468;2023-02-18T08:42:49;12.37;;;7.17;;
13461;SDS011;6803;45.264;5.468;2023-02-18T08:45:24;11.83;;;6.27;;
13461;SDS011;6803;45.264;5.468;2023-02-18T08:47:56;8.90;;;6.83;;
13461;SDS011;6803;45.264;5.468;2023-02-18T08:50:30;8.60;;;6.43;;
13461;SDS011;6803;45.264;5.468;2023-02-18T08:53:02;10.57;;;6.50;;
13461;SDS011;6803;45.264;5.468;2023-02-18T08:55:38;10.77;;;6.77;;
13461;SDS011;6803;45.264;5.468;2023-02-18T08:58:10;17.23;;;7.03;;
13461;SDS011;6803;45.264;5.468;2023-02-18T09:00:43;12.97;;;7.60;;
13461;SDS011;6803;45.264;5.468;2023-02-18T09:03:22;12.73;;;6.20;;
13461;SDS011;6803;45.264;5.468;2023-02-18T09:05:54;12.67;;;7.20;;
13461;SDS011;6803;45.264;5.468;2023-02-18T09:08:27;12.87;;;7.30;;
13461;SDS011;6803;45.264;5.468;2023-02-18T09:10:59;12.63;;;7.67;;
13461;SDS011;6803;45.264;5.468;2023-02-18T09:13:32;12.07;;;6.67;;
13461;SDS011;6803;45.264;5.468;2023-02-18T09:16:05;12.47;;;6.53;;
13461;SDS011;6803;45.264;5.468;2023-02-18T09:18:38;10.70;;;7.33;;
13461;SDS011;6803;45.264;5.468;2023-02-18T09:21:10;13.00;;;6.70;;
13461;SDS011;6803;45.264;5.468;2023-02-18T09:23:44;13.07;;;7.07;;
13461;SDS011;6803;45.264;5.468;2023-02-18T09:26:16;257.30;;;24.03;;
13461;SDS011;6803;45.264;5.468;2023-02-18T09:28:50;10.13;;;6.33;;
13461;SDS011;6803;45.264;5.468;2023-02-18T09:31:23;12.73;;;6.50;;
13461;SDS011;6803;45.264;5.468;2023-02-18T09:33:56;12.70;;;6.43;;
13461;SDS011;6803;45.264;5.468;2023-02-18T09:36:30;11.63;;;6.83;;
13461;SDS011;6803;45.264;5.468;2023-02-18T09:39:01;9.77;;;6.03;;
13461;SDS011;6803;45.264;5.468;2023-02-18T09:41:35;9.27;;;6.30;;
13461;SDS011;6803;45.264;5.468;2023-02-18T09:44:10;12.03;;;6.77;;
13461;SDS011;6803;45.264;5.468;2023-02-18T09:49:36;9.33;;;6.20;;
13461;SDS011;6803;45.264;5.468;2023-02-18T09:52:11;9.87;;;6.67;;
13461;SDS011;6803;45.264;5.468;2023-02-18T09:54:44;13.47;;;6.80;;
13461;SDS011;6803;45.264;5.468;2023-02-18T09:57:23;12.53;;;6.57;;
13461;SDS011;6803;45.264;5.468;2023-02-18T09:59:56;11.53;;;7.10;;
13461;SDS011;6803;45.264;5.468;2023-02-18T10:02:29;11.90;;;6.73;;
13461;SDS011;6803;45.264;5.468;2023-02-18T10:05:02;13.10;;;7.33;;
13461;SDS011;6803;45.264;5.468;2023-02-18T10:07:33;12.40;;;6.43;;
13461;SDS011;6803;45.264;5.468;2023-02-18T10:10:10;11.00;;;6.53;;
13461;SDS011;6803;45.264;5.468;2023-02-18T10:12:46;11.57;;;6.93;;
13461;SDS011;6803;45.264;5.468;2023-02-18T10:15:19;12.17;;;6.80;;
13461;SDS011;6803;45.264;5.468;2023-02-18T10:17:52;12.33;;;7.27;;
13461;SDS011;6803;45.264;5.468;2023-02-18T10:20:27;11.17;;;6.50;;
13461;SDS011;6803;45.264;5.468;2023-02-18T10:22:59;11.57;;;6.30;;
13461;SDS011;6803;45.264;5.468;2023-02-18T10:25:33;11.17;;;5.63;;
13461;SDS011;6803;45.264;5.468;2023-02-18T10:28:08;9.47;;;5.80;;
13461;SDS011;6803;45.264;5.468;2023-02-18T10:30:40;30.47;;;7.40;;
13461;SDS011;6803;45.264;5.468;2023-02-18T10:33:19;15.43;;;6.93;;
13461;SDS011;6803;45.264;5.468;2023-02-18T10:35:55;11.90;;;7.93;;
13461;SDS011;6803;45.264;5.468;2023-02-18T10:38:31;8.90;;;6.40;;
13461;SDS011;6803;45.264;5.468;2023-02-18T10:41:04;11.03;;;6.93;;
13461;SDS011;6803;45.264;5.468;2023-02-18T10:43:44;13.57;;;6.17;;
13461;SDS011;6803;45.264;5.468;2023-02-18T10:46:19;9.67;;;6.67;;
13461;SDS011;6803;45.264;5.468;2023-02-18T10:48:54;12.18;;;7.53;;
13461;SDS011;6803;45.264;5.468;2023-02-18T10:51:33;8.80;;;6.10;;
13461;SDS011;6803;45.264;5.468;2023-02-18T10:54:04;11.70;;;7.10;;
13461;SDS011;6803;45.264;5.468;2023-02-18T10:56:40;11.73;;;7.13;;
13461;SDS011;6803;45.264;5.468;2023-02-18T10:59:18;12.90;;;7.33;;
13461;SDS011;6803;45.264;5.468;2023-02-18T11:01:53;12.30;;;6.83;;
13461;SDS011;6803;45.264;5.468;2023-02-18T11:04:27;12.03;;;6.90;;
13461;SDS011;6803;45.264;5.468;2023-02-18T11:07:04;12.20;;;7.23;;
13461;SDS011;6803;45.264;5.468;2023-02-18T11:09:38;9.50;;;6.63;;
13461;SDS011;6803;45.264;5.468;2023-02-18T11:12:13;10.77;;;7.07;;
13461;SDS011;6803;45.264;5.468;2023-02-18T11:14:47;12.17;;;6.67;;
13461;SDS011;6803;45.264;5.468;2023-02-18T11:17:20;10.50;;;7.03;;
13461;SDS011;6803;45.264;5.468;2023-02-18T11:19:54;15.80;;;7.00;;
13461;SDS011;6803;45.264;5.468;2023-02-18T11:22:28;10.43;;;6.50;;
13461;SDS011;6803;45.264;5.468;2023-02-18T11:25:02;8.73;;;6.03;;
13461;SDS011;6803;45.264;5.468;2023-02-18T11:27:37;8.70;;;6.23;;
13461;SDS011;6803;45.264;5.468;2023-02-18T11:30:16;11.83;;;6.90;;
13461;SDS011;6803;45.264;5.468;2023-02-18T11:32:50;9.63;;;6.00;;
13461;SDS011;6803;45.264;5.468;2023-02-18T11:38:20;13.17;;;7.27;;
13461;SDS011;6803;45.264;5.468;2023-02-18T11:40:55;12.43;;;7.23;;
13461;SDS011;6803;45.264;5.468;2023-02-18T11:43:35;12.40;;;7.33;;
13461;SDS011;6803;45.264;5.468;2023-02-18T11:46:08;15.03;;;8.57;;
13461;SDS011;6803;45.264;5.468;2023-02-18T11:48:42;10.73;;;7.40;;
13461;SDS011;6803;45.264;5.468;2023-02-18T11:51:17;11.70;;;8.00;;
13461;SDS011;6803;45.264;5.468;2023-02-18T11:53:54;11.90;;;7.50;;
13461;SDS011;6803;45.264;5.468;2023-02-18T11:56:28;11.10;;;7.53;;
13461;SDS011;6803;45.264;5.468;2023-02-18T11:59:00;11.57;;;7.80;;
13461;SDS011;6803;45.264;5.468;2023-02-18T12:01:37;13.13;;;7.00;;
13461;SDS011;6803;45.264;5.468;2023-02-18T12:04:12;11.07;;;7.17;;
13461;SDS011;6803;45.264;5.468;2023-02-18T12:06:47;14.23;;;8.00;;
13461;SDS011;6803;45.264;5.468;2023-02-18T12:09:22;11.43;;;6.93;;
13461;SDS011;6803;45.264;5.468;2023-02-18T12:11:57;9.93;;;6.37;;
13461;SDS011;6803;45.264;5.468;2023-02-18T12:14:30;10.73;;;6.07;;
13461;SDS011;6803;45.264;5.468;2023-02-18T12:23:18;9.00;;;6.10;;
13461;SDS011;6803;45.264;5.468;2023-02-18T12:25:53;9.90;;;6.13;;
13461;SDS011;6803;45.264;5.468;2023-02-18T12:28:28;11.30;;;5.03;;
13461;SDS011;6803;45.264;5.468;2023-02-18T12:31:16;8.97;;;5.30;;
13461;SDS011;6803;45.264;5.468;2023-02-18T12:33:56;9.50;;;5.23;;
13461;SDS011;6803;45.264;5.468;2023-02-18T12:36:35;11.10;;;5.80;;
13461;SDS011;6803;45.264;5.468;2023-02-18T12:39:18;8.50;;;5.00;;
13461;SDS011;6803;45.264;5.468;2023-02-18T12:41:56;8.73;;;5.80;;
13461;SDS011;6803;45.264;5.468;2023-02-18T12:44:38;11.50;;;5.37;;
13461;SDS011;6803;45.264;5.468;2023-02-18T12:47:24;7.00;;;5.30;;
13461;SDS011;6803;45.264;5.468;2023-02-18T12:53:14;8.30;;;6.03;;
13461;SDS011;6803;45.264;5.468;2023-02-18T12:56:03;6.87;;;5.20;;
13461;SDS011;6803;45.264;5.468;2023-02-18T12:58:41;4.57;;;3.70;;
13461;SDS011;6803;45.264;5.468;2023-02-18T13:01:22;6.50;;;3.50;;
13461;SDS011;6803;45.264;5.468;2023-02-18T13:10:15;3.20;;;2.63;;
13461;SDS011;6803;45.264;5.468;2023-02-18T13:12:59;4.33;;;2.70;;
13461;SDS011;6803;45.264;5.468;2023-02-18T13:15:35;7.17;;;4.10;;
13461;SDS011;6803;45.264;5.468;2023-02-18T13:18:09;12.03;;;5.23;;
13461;SDS011;6803;45.264;5.468;2023-02-18T13:20:43;6.87;;;4.83;;
13461;SDS011;6803;45.264;5.468;2023-02-18T13:23:17;6.57;;;5.07;;
13461;SDS011;6803;45.264;5.468;2023-02-18T13:25:55;5.87;;;4.40;;
13461;SDS011;6803;45.264;5.468;2023-02-18T13:28:28;8.33;;;4.10;;
13461;SDS011;6803;45.264;5.468;2023-02-18T13:31:06;3.17;;;2.13;;
13461;SDS011;6803;45.264;5.468;2023-02-18T13:33:46;3.13;;;2.10;;
13461;SDS011;6803;45.264;5.468;2023-02-18T13:36:21;3.43;;;2.73;;
13461;SDS011;6803;45.264;5.468;2023-02-18T13:39:03;1.80;;;1.30;;
13461;SDS011;6803;45.264;5.468;2023-02-18T13:41:37;2.23;;;1.70;;
13461;SDS011;6803;45.264;5.468;2023-02-18T13:44:15;1.87;;;1.30;;
13461;SDS011;6803;45.264;5.468;2023-02-18T13:47:03;2.40;;;1.80;;
13461;SDS011;6803;45.264;5.468;2023-02-18T13:49:37;4.57;;;1.57;;
13461;SDS011;6803;45.264;5.468;2023-02-18T13:52:15;2.90;;;1.90;;
13461;SDS011;6803;45.264;5.468;2023-02-18T13:54:47;2.47;;;1.30;;
13461;SDS011;6803;45.264;5.468;2023-02-18T13:57:19;1.33;;;1.20;;
13461;SDS011;6803;45.264;5.468;2023-02-18T13:59:55;1.82;;;1.67;;
13461;SDS011;6803;45.264;5.468;2023-02-18T14:02:30;3.53;;;1.50;;
13461;SDS011;6803;45.264;5.468;2023-02-18T14:05:18;3.00;;;1.17;;
13461;SDS011;6803;45.264;5.468;2023-02-18T14:08:09;3.73;;;1.10;;
13461;SDS011;6803;45.264;5.468;2023-02-18T14:10:34;1.30;;;1.20;;
13461;SDS011;6803;45.264;5.468;2023-02-18T14:16:08;1.67;;;1.20;;
13461;SDS011;6803;45.264;5.468;2023-02-18T14:18:59;1.97;;;1.20;;
13461;SDS011;6803;45.264;5.468;2023-02-18T14:21:40;2.07;;;1.10;;
13461;SDS011;6803;45.264;5.468;2023-02-18T14:24:12;2.17;;;1.33;;
13461;SDS011;6803;45.264;5.468;2023-02-18T14:26:46;1.70;;;1.40;;
13461;SDS011;6803;45.264;5.468;2023-02-18T14:29:20;1.47;;;1.13;;
13461;SDS011;6803;45.264;5.468;2023-02-18T14:31:58;1.30;;;1.10;;
13461;SDS011;6803;45.264;5.468;2023-02-18T14:37:48;1.80;;;1.00;;
13461;SDS011;6803;45.264;5.468;2023-02-18T14:41:00;1.97;;;1.30;;
13461;SDS011;6803;45.264;5.468;2023-02-18T14:43:49;3.53;;;1.60;;
13461;SDS011;6803;45.264;5.468;2023-02-18T14:46:27;2.90;;;1.10;;
13461;SDS011;6803;45.264;5.468;2023-02-18T14:49:04;2.35;;;1.92;;
13461;SDS011;6803;45.264;5.468;2023-02-18T14:51:48;1.50;;;1.20;;
13461;SDS011;6803;45.264;5.468;2023-02-18T14:54:20;1.53;;;1.00;;
13461;SDS011;6803;45.264;5.468;2023-02-18T14:56:54;1.10;;;0.97;;
13461;SDS011;6803;45.264;5.468;2023-02-18T14:59:28;1.23;;;1.07;;
13461;SDS011;6803;45.264;5.468;2023-02-18T15:02:01;1.40;;;1.10;;
13461;SDS011;6803;45.264;5.468;2023-02-18T15:04:32;2.13;;;1.10;;
13461;SDS011;6803;45.264;5.468;2023-02-18T15:07:07;1.60;;;1.10;;
13461;SDS011;6803;45.264;5.468;2023-02-18T15:09:44;1.40;;;1.20;;
13461;SDS011;6803;45.264;5.468;2023-02-18T15:12:16;2.40;;;1.10;;
13461;SDS011;6803;45.264;5.468;2023-02-18T15:14:51;2.17;;;1.03;;
13461;SDS011;6803;45.264;5.468;2023-02-18T15:17:24;1.03;;;1.03;;
13461;SDS011;6803;45.264;5.468;2023-02-18T15:19:56;2.33;;;1.23;;
13461;SDS011;6803;45.264;5.468;2023-02-18T15:22:30;1.73;;;0.93;;
13461;SDS011;6803;45.264;5.468;2023-02-18T15:25:03;1.10;;;1.00;;
13461;SDS011;6803;45.264;5.468;2023-02-18T15:27:37;2.13;;;1.00;;
13461;SDS011;6803;45.264;5.468;2023-02-18T15:30:16;2.57;;;0.90;;
13461;SDS011;6803;45.264;5.468;2023-02-18T15:32:50;2.50;;;1.00;;
13461;SDS011;6803;45.264;5.468;2023-02-18T15:35:22;0.97;;;0.87;;
13461;SDS011;6803;45.264;5.468;2023-02-18T15:37:57;1.27;;;0.90;;
13461;SDS011;6803;45.264;5.468;2023-02-18T15:40:31;1.03;;;0.83;;
13461;SDS011;6803;45.264;5.468;2023-02-18T15:43:05;1.10;;;1.00;;
13461;SDS011;6803;45.264;5.468;2023-02-18T15:45:38;1.20;;;1.10;;
13461;SDS011;6803;45.264;5.468;2023-02-18T15:48:12;1.67;;;1.10;;
13461;SDS011;6803;45.264;5.468;2023-02-18T15:50:50;1.10;;;1.00;;
13461;SDS011;6803;45.264;5.468;2023-02-18T15:53:23;0.80;;;0.80;;
13461;SDS011;6803;45.264;5.468;2023-02-18T15:55:55;4.60;;;1.87;;
13461;SDS011;6803;45.264;5.468;2023-02-18T15:58:26;0.80;;;0.70;;
13461;SDS011;6803;45.264;5.468;2023-02-18T16:01:00;0.93;;;0.80;;
13461;SDS011;6803;45.264;5.468;2023-02-18T16:03:43;1.07;;;1.00;;
13461;SDS011;6803;45.264;5.468;2023-02-18T16:06:22;0.80;;;0.80;;
13461;SDS011;6803;45.264;5.468;2023-02-18T16:08:58;1.00;;;0.90;;
13461;SDS011;6803;45.264;5.468;2023-02-18T16:11:31;1.10;;;1.00;;
13461;SDS011;6803;45.264;5.468;2023-02-18T16:14:04;0.90;;;0.90;;
13461;SDS011;6803;45.264;5.468;2023-02-18T16:16:37;2.13;;;1.20;;
13461;SDS011;6803;45.264;5.468;2023-02-18T16:19:20;3.13;;;0.80;;
13461;SDS011;6803;45.264;5.468;2023-02-18T16:21:52;1.57;;;1.47;;
13461;SDS011;6803;45.264;5.468;2023-02-18T16:24:23;4.00;;;1.30;;
13461;SDS011;6803;45.264;5.468;2023-02-18T16:26:56;3.93;;;1.53;;
13461;SDS011;6803;45.264;5.468;2023-02-18T16:29:33;5.20;;;1.23;;
13461;SDS011;6803;45.264;5.468;2023-02-18T16:32:04;1.60;;;1.40;;
13461;SDS011;6803;45.264;5.468;2023-02-18T16:34:35;1.40;;;1.30;;